FW0647 Weather Reports


Display with metric or nautical units.
time (UTC)temp
F
wind
direction
speed
MPH
gust
MPH
rain 1hr
in
rain 24hr
in
rain mn
in
humidity
%
barometer
mb
20220704023021 85 360 0.0 0.0 0.00 0.00 0.00 65 1016.8
20220704021519 85 360 0.0 0.0 0.00 0.00 0.00 65 1016.8
20220704020010 85 360 0.0 0.0 0.00 0.00 0.00 64 1016.7
20220704014509 85 360 0.0 2.0 0.00 0.00 0.00 64 1016.7
20220704013012 86 360 0.0 1.0 0.00 0.00 0.00 64 1016.9
20220704011509 86 360 0.0 2.0 0.00 0.00 0.00 64 1016.9
20220704010008 86 360 0.0 5.0 0.00 0.00 0.00 62 1017.1
20220704004508 87 360 0.0 6.0 0.00 0.00 0.00 62 1017.2
20220704003008 88 360 0.0 9.0 0.00 0.00 0.00 59 1017.1
20220704001507 90 360 0.0 7.0 0.00 0.00 0.00 56 1017.0
20220704000006 90 360 0.0 3.0 0.00 0.00 0.00 56 1016.8
20220703234506 91 360 0.0 2.0 0.00 0.00 0.00 53 1016.9
20220703233005 94 360 0.0 1.0 0.00 0.00 0.00 50 1016.8
20220703231506 93 360 0.0 7.0 0.00 0.00 0.00 51 1016.7
20220703230004 93 360 0.0 13.0 0.00 0.00 0.00 51 1016.5
20220703224504 95 360 0.0 4.0 0.00 0.00 0.00 50 1016.6
20220703223003 99 360 0.0 0.0 0.00 0.00 0.00 40 1016.4
20220703221502 99 360 0.0 4.0 0.00 0.00 0.00 38 1016.3
20220703220001 101 360 0.0 1.0 0.00 0.00 0.00 38 1016.3
20220703214600 102 360 0.0 0.0 0.00 0.00 0.00 37 1016.3
20220703213108 104 360 0.0 0.0 0.00 0.00 0.00 36 1016.4
20220703211600 103 360 0.0 1.0 0.00 0.00 0.00 38 1016.4
20220703210056 101 360 0.0 0.0 0.00 0.00 0.00 39 1016.3
20220703204605 102 360 0.0 1.0 0.00 0.00 0.00 38 1016.7
20220703203055 102 360 0.0 0.0 0.00 0.00 0.00 38 1016.4
20220703201556 102 360 0.0 0.0 0.00 0.00 0.00 39 1016.4
20220703200059 101 360 0.0 4.0 0.00 0.00 0.00 40 1016.9
20220703194603 101 360 0.0 1.0 0.00 0.00 0.00 41 1017.1
20220703193051 101 360 0.0 1.0 0.00 0.00 0.00 40 1017.2
20220703191553 101 360 0.0 5.0 0.00 0.00 0.00 41 1017.2
20220703190046 100 360 0.0 1.0 0.00 0.00 0.00 43 1017.5
20220703184549 99 360 0.0 1.0 0.00 0.00 0.00 45 1017.7
20220703183041 99 360 0.0 0.0 0.00 0.00 0.00 47 1017.9
20220703181538 98 360 0.0 0.0 0.00 0.00 0.00 44 1018.1
20220703180040 95 360 0.0 8.0 0.00 0.00 0.00 50 1018.4
20220703174536 95 360 0.0 0.0 0.00 0.00 0.00 54 1018.8
20220703173030 94 360 0.0 0.0 0.00 0.00 0.00 57 1018.8
20220703171528 93 360 0.0 1.0 0.00 0.00 0.00 59 1018.9
20220703170026 92 360 0.0 2.0 0.00 0.00 0.00 60 1019.0
20220703164526 92 360 0.0 0.0 0.00 0.00 0.00 60 1019.0
20220703163025 92 360 0.0 0.0 0.00 0.00 0.00 60 1019.1
20220703161521 90 360 0.0 0.0 0.00 0.00 0.00 62 1019.0
20220703160026 90 360 0.0 1.0 0.00 0.00 0.00 64 1019.0
20220703154525 88 360 0.0 0.0 0.00 0.00 0.00 67 1018.8
20220703153016 87 360 0.0 7.0 0.00 0.00 0.00 68 1019.0
20220703151514 86 360 0.0 5.0 0.00 0.00 0.00 69 1019.2
20220703150010 86 360 0.0 6.0 0.00 0.00 0.00 70 1019.0
20220703144506 85 360 0.0 2.0 0.00 0.00 0.00 72 1019.0
20220703143010 84 360 0.0 4.0 0.00 0.00 0.00 73 1018.9
20220703141502 84 360 0.0 4.0 0.00 0.00 0.00 75 1019.0
20220703140058 83 360 0.0 1.0 0.00 0.00 0.00 76 1018.9
20220703134557 83 360 0.0 1.0 0.00 0.00 0.00 76 1018.7
20220703133055 82 360 0.0 6.0 0.00 0.00 0.00 77 1018.8
20220703131553 82 360 0.0 2.0 0.00 0.00 0.00 78 1018.5
20220703130051 81 360 0.0 8.0 0.00 0.00 0.00 79 1018.4
20220703124557 81 360 0.0 2.0 0.00 0.00 0.00 80 1018.3
20220703123048 80 360 0.0 1.0 0.00 0.00 0.00 80 1018.2
20220703121547 80 360 0.0 1.0 0.00 0.00 0.00 80 1018.2
20220703120044 80 360 0.0 0.0 0.00 0.00 0.00 81 1018.1
20220703114543 80 360 0.0 0.0 0.00 0.00 0.00 80 1017.9
20220703113040 80 360 0.0 0.0 0.00 0.00 0.00 80 1017.8
20220703111540 80 360 0.0 0.0 0.00 0.00 0.00 80 1017.7
20220703110038 80 360 0.0 0.0 0.00 0.00 0.00 80 1017.5
20220703104538 80 360 0.0 0.0 0.00 0.00 0.00 80 1017.6
20220703103038 80 360 0.0 0.0 0.00 0.00 0.00 80 1017.7
20220703101537 80 360 0.0 0.0 0.00 0.00 0.00 80 1017.7
20220703100035 80 360 0.0 0.0 0.00 0.00 0.00 80 1017.7
20220703094533 80 360 0.0 0.0 0.00 0.00 0.00 80 1017.5
20220703093039 80 360 0.0 0.0 0.00 0.00 0.00 80 1017.5
20220703091531 81 360 0.0 0.0 0.00 0.00 0.00 79 1017.3
20220703090029 81 360 0.0 0.0 0.00 0.00 0.00 79 1017.1
20220703084533 81 360 0.0 0.0 0.00 0.00 0.00 78 1017.1
20220703083026 81 360 0.0 0.0 0.00 0.00 0.00 78 1017.0
20220703081530 82 360 0.0 0.0 0.00 0.00 0.00 77 1016.9
20220703080022 82 360 0.0 0.0 0.00 0.00 0.00 77 1017.0
20220703074521 82 360 0.0 0.0 0.00 0.00 0.00 76 1017.0
20220703073019 83 360 0.0 0.0 0.00 0.00 0.00 75 1016.9
20220703071519 83 360 0.0 1.0 0.00 0.00 0.00 75 1016.9
20220703070016 83 360 0.0 0.0 0.00 0.00 0.00 74 1016.8
20220703064516 83 360 0.0 0.0 0.00 0.00 0.00 74 1016.8
20220703063014 84 360 0.0 0.0 0.00 0.00 0.00 73 1016.9
20220703061513 84 360 0.0 0.0 0.00 0.00 0.00 73 1016.9
20220703060019 84 360 0.0 0.0 0.00 0.00 0.00 72 1016.9
20220703054510 84 360 0.0 0.0 0.00 0.00 0.00 71 1016.9
20220703053009 85 360 0.0 1.0 0.00 0.00 0.00 71 1016.8
20220703051510 84 360 0.0 0.0 0.00 0.00 0.00 71 1016.8
20220703050006 85 360 0.0 0.0 0.00 0.00 0.00 69 1016.8
20220703044503 85 360 0.0 0.0 0.00 0.00 0.00 68 1016.5
20220703043003 85 360 0.0 0.0 0.00 0.00 0.00 68 1016.4
20220703041503 86 360 0.0 0.0 0.00 0.00 0.00 67 1016.2
20220703040002 86 360 0.0 1.0 0.00 0.00 0.00 66 1016.0
20220703034504 87 360 0.0 0.0 0.00 0.00 0.00 66 1015.7
20220703033000 88 360 0.0 0.0 0.00 0.00 0.00 64 1015.6
20220703031607 88 360 0.0 0.0 0.00 0.00 0.00 64 1015.5
20220703030100 89 360 0.0 0.0 0.00 0.00 0.00 63 1015.3
20220703024606 89 360 0.0 0.0 0.00 0.00 0.00 62 1015.1